createdAt,value
2018-03-31T00:01:55.897Z,4.30
2018-03-31T00:04:24.241Z,3.70
2018-03-31T00:06:52.267Z,3.77
2018-03-31T00:09:21.044Z,4.03
2018-03-31T00:11:49.064Z,3.30
2018-03-31T00:14:18.126Z,4.00
2018-03-31T00:16:46.158Z,3.93
2018-03-31T00:19:15.224Z,3.60
2018-03-31T00:21:43.766Z,3.67
2018-03-31T00:24:12.834Z,4.03
2018-03-31T00:26:40.876Z,4.07
2018-03-31T00:29:09.182Z,3.20
2018-03-31T00:31:37.490Z,3.97
2018-03-31T00:34:05.544Z,3.67
2018-03-31T00:36:33.833Z,3.93
2018-03-31T00:39:02.134Z,3.60
2018-03-31T00:41:30.137Z,3.63
2018-03-31T00:43:58.444Z,3.90
2018-03-31T00:46:26.741Z,3.80
2018-03-31T00:48:55.059Z,3.90
2018-03-31T00:51:23.344Z,3.97
2018-03-31T00:53:51.646Z,4.17
2018-03-31T00:56:19.687Z,5.00
2018-03-31T00:58:48.170Z,4.40
2018-03-31T01:01:16.964Z,3.70
2018-03-31T01:03:45.307Z,4.30
2018-03-31T01:06:14.351Z,4.13
2018-03-31T01:08:42.707Z,4.30
2018-03-31T01:11:11.801Z,4.57
2018-03-31T01:13:40.856Z,4.43
2018-03-31T01:16:08.881Z,3.80
2018-03-31T01:18:37.947Z,3.97
2018-03-31T01:21:06.287Z,4.00
2018-03-31T01:23:34.308Z,4.33
2018-03-31T01:26:02.598Z,4.30
2018-03-31T01:28:30.628Z,3.80
2018-03-31T01:30:58.655Z,5.23
2018-03-31T01:33:26.698Z,4.80
2018-03-31T01:35:54.985Z,4.47
2018-03-31T01:38:23.313Z,4.63
2018-03-31T01:40:51.301Z,4.60
2018-03-31T01:43:19.607Z,4.47
2018-03-31T01:45:47.898Z,4.60
2018-03-31T01:48:15.910Z,4.47
2018-03-31T01:50:44.023Z,4.60
2018-03-31T01:53:12.327Z,4.80
2018-03-31T01:55:40.843Z,5.10
2018-03-31T01:58:09.128Z,5.27
2018-03-31T02:00:37.459Z,4.63
2018-03-31T02:03:05.793Z,4.73
2018-03-31T02:05:34.082Z,4.60
2018-03-31T02:08:02.388Z,4.47
2018-03-31T02:10:31.488Z,4.80
2018-03-31T02:12:59.496Z,4.80
2018-03-31T02:15:27.801Z,4.70
2018-03-31T02:17:55.897Z,4.60
2018-03-31T02:20:24.962Z,4.87
2018-03-31T02:22:53.270Z,4.43
2018-03-31T02:25:21.803Z,5.17
2018-03-31T02:27:50.093Z,5.03
2018-03-31T02:30:18.101Z,4.63
2018-03-31T02:32:46.404Z,4.73
2018-03-31T02:35:14.404Z,5.00
2018-03-31T02:37:42.724Z,5.57
2018-03-31T02:40:11.777Z,5.33
2018-03-31T02:42:40.095Z,5.30
2018-03-31T02:45:08.886Z,5.33
2018-03-31T02:47:37.192Z,5.20
2018-03-31T02:50:05.482Z,4.70
2018-03-31T02:52:33.763Z,4.37
2018-03-31T02:55:01.809Z,4.20
2018-03-31T02:57:29.853Z,4.80
2018-03-31T02:59:58.935Z,4.33
2018-03-31T03:02:26.961Z,4.03
2018-03-31T03:04:54.969Z,4.10
2018-03-31T03:07:23.284Z,4.00
2018-03-31T03:09:51.553Z,4.13
2018-03-31T03:12:19.853Z,4.23
2018-03-31T03:14:48.642Z,4.33
2018-03-31T03:17:16.397Z,4.63
2018-03-31T03:19:44.161Z,4.17
2018-03-31T03:22:11.944Z,4.67
2018-03-31T03:24:39.709Z,4.60
2018-03-31T03:27:07.502Z,4.80
2018-03-31T03:29:35.297Z,4.30
2018-03-31T03:32:03.075Z,5.03
2018-03-31T03:34:30.903Z,4.50
2018-03-31T03:36:59.436Z,4.77
2018-03-31T03:39:27.377Z,4.80
2018-03-31T03:41:55.909Z,5.00
2018-03-31T03:44:23.869Z,4.67
2018-03-31T03:46:51.651Z,5.27
2018-03-31T03:49:19.431Z,5.37
2018-03-31T03:51:47.224Z,5.87
2018-03-31T03:54:15.003Z,5.97
2018-03-31T03:56:42.784Z,5.50
2018-03-31T03:59:10.552Z,5.50
2018-03-31T04:01:38.337Z,5.93
2018-03-31T04:04:06.116Z,5.60
2018-03-31T04:06:33.870Z,6.23
2018-03-31T04:09:01.710Z,6.00
2018-03-31T04:11:29.485Z,6.40
2018-03-31T04:13:57.249Z,6.43
2018-03-31T04:16:25.040Z,6.57
2018-03-31T04:18:53.575Z,6.07
2018-03-31T04:21:21.359Z,6.77
2018-03-31T04:23:49.965Z,6.00
2018-03-31T04:26:17.735Z,5.73
2018-03-31T04:28:45.506Z,5.90
2018-03-31T04:31:13.272Z,6.33
2018-03-31T04:33:41.052Z,6.27
2018-03-31T04:36:08.812Z,6.07
2018-03-31T04:38:36.572Z,6.83
2018-03-31T04:41:05.157Z,6.13
2018-03-31T04:43:33.720Z,6.63
2018-03-31T04:46:01.508Z,7.00
2018-03-31T04:48:29.517Z,7.30
2018-03-31T04:50:57.045Z,6.50
2018-03-31T04:53:24.577Z,7.70
2018-03-31T04:55:52.748Z,7.70
2018-03-31T04:58:21.290Z,7.53
2018-03-31T05:00:49.058Z,7.97
2018-03-31T05:03:17.441Z,8.17
2018-03-31T05:05:44.959Z,7.63
2018-03-31T05:08:12.512Z,8.37
2018-03-31T05:10:40.288Z,8.70
2018-03-31T05:13:07.854Z,9.23
2018-03-31T05:15:35.636Z,9.00
2018-03-31T05:18:03.408Z,9.37
2018-03-31T05:20:31.177Z,9.50
2018-03-31T05:22:58.961Z,8.97
2018-03-31T05:25:26.496Z,9.27
2018-03-31T05:27:54.049Z,8.07
2018-03-31T05:30:21.820Z,8.67
2018-03-31T05:32:50.349Z,8.67
2018-03-31T05:35:18.139Z,9.37
2018-03-31T05:37:45.977Z,9.43
2018-03-31T05:40:14.301Z,8.80
2018-03-31T05:42:42.091Z,8.53
2018-03-31T05:45:09.881Z,9.27
2018-03-31T05:47:37.670Z,8.80
2018-03-31T05:50:05.433Z,9.13
2018-03-31T05:52:33.564Z,10.13
2018-03-31T05:55:02.108Z,9.50
2018-03-31T05:57:29.902Z,9.77
2018-03-31T05:59:57.666Z,8.70
2018-03-31T06:02:25.964Z,9.10
2018-03-31T06:04:55.486Z,9.17
2018-03-31T06:07:23.704Z,9.87
2018-03-31T06:09:52.420Z,9.17
2018-03-31T06:12:20.426Z,8.97
2018-03-31T06:14:48.226Z,10.27
2018-03-31T06:17:16.011Z,10.07
2018-03-31T06:19:45.406Z,9.67
2018-03-31T06:22:14.160Z,9.33
2018-03-31T06:24:42.990Z,9.37
2018-03-31T06:27:11.720Z,9.03
2018-03-31T06:29:39.863Z,8.83
2018-03-31T06:32:08.030Z,9.23
2018-03-31T06:34:36.014Z,9.63
2018-03-31T06:37:03.810Z,9.97
2018-03-31T06:39:32.573Z,9.20
2018-03-31T06:42:00.813Z,8.87
2018-03-31T06:44:29.854Z,9.77
2018-03-31T06:46:57.942Z,8.67
2018-03-31T06:49:27.550Z,8.40
2018-03-31T06:51:56.067Z,9.57
2018-03-31T06:54:23.899Z,8.83
2018-03-31T06:56:52.218Z,8.27
2018-03-31T06:59:19.974Z,8.53
2018-03-31T07:01:47.765Z,9.37
2018-03-31T07:04:15.543Z,7.93
2018-03-31T07:06:43.434Z,8.13
2018-03-31T07:09:11.268Z,7.73
2018-03-31T07:11:39.810Z,8.10
2018-03-31T07:14:07.599Z,7.93
2018-03-31T07:16:35.362Z,8.10
2018-03-31T07:19:03.332Z,8.33
2018-03-31T07:21:31.092Z,8.50
2018-03-31T07:23:59.681Z,7.67
2018-03-31T07:26:27.453Z,7.27
2018-03-31T07:28:55.263Z,7.87
2018-03-31T07:31:23.041Z,8.00
2018-03-31T07:33:50.840Z,7.43
2018-03-31T07:36:18.621Z,7.20
2018-03-31T07:38:47.769Z,7.93
2018-03-31T07:41:17.007Z,7.77
2018-03-31T07:43:44.869Z,7.57
2018-03-31T07:46:13.036Z,7.60
2018-03-31T07:48:41.586Z,7.77
2018-03-31T07:51:10.610Z,7.70
2018-03-31T07:53:38.526Z,7.03
2018-03-31T07:56:07.084Z,7.13
2018-03-31T07:58:34.923Z,8.03
2018-03-31T08:01:02.841Z,7.43
2018-03-31T08:03:31.541Z,8.27
2018-03-31T08:05:59.332Z,6.27
2018-03-31T08:08:27.110Z,6.47
2018-03-31T08:10:55.319Z,6.50
2018-03-31T08:13:23.928Z,6.90
2018-03-31T08:15:51.741Z,6.77
2018-03-31T08:18:19.502Z,7.13
2018-03-31T08:20:47.293Z,6.33
2018-03-31T08:23:15.080Z,6.50
2018-03-31T08:25:42.897Z,6.33
2018-03-31T08:28:10.673Z,6.63
2018-03-31T08:30:39.219Z,6.97
2018-03-31T08:33:07.007Z,6.40
2018-03-31T08:35:34.913Z,6.07
2018-03-31T08:38:03.461Z,6.57
2018-03-31T08:40:31.259Z,5.80
2018-03-31T08:42:58.808Z,6.03
2018-03-31T08:45:26.626Z,5.47
2018-03-31T08:47:54.205Z,5.13
2018-03-31T08:50:22.229Z,5.00
2018-03-31T08:52:50.051Z,5.63
2018-03-31T08:55:17.824Z,4.73
2018-03-31T08:57:45.716Z,5.00
2018-03-31T09:00:14.287Z,5.90
2018-03-31T09:02:42.070Z,5.00
2018-03-31T09:05:09.837Z,4.90
2018-03-31T09:07:37.623Z,4.80
2018-03-31T09:10:05.409Z,4.13
2018-03-31T09:12:33.230Z,4.30
2018-03-31T09:15:01.030Z,4.70
2018-03-31T09:17:28.821Z,4.00
2018-03-31T09:19:56.605Z,5.23
2018-03-31T09:22:24.170Z,4.70
2018-03-31T09:24:51.946Z,5.20
2018-03-31T09:27:19.791Z,4.70
2018-03-31T09:29:47.640Z,4.47
2018-03-31T09:32:16.174Z,5.00
2018-03-31T09:34:44.072Z,4.30
2018-03-31T09:37:11.852Z,4.20
2018-03-31T09:39:39.986Z,4.00
2018-03-31T09:42:08.529Z,4.50
2018-03-31T09:44:36.301Z,4.13
2018-03-31T09:47:04.073Z,4.80
2018-03-31T09:49:31.842Z,4.73
2018-03-31T09:51:59.642Z,4.53
2018-03-31T09:54:27.451Z,4.70
2018-03-31T09:56:55.552Z,4.30
2018-03-31T09:59:24.321Z,4.43
2018-03-31T10:01:52.112Z,4.37
2018-03-31T10:04:20.685Z,4.00
2018-03-31T10:06:48.461Z,4.13
2018-03-31T10:09:17.808Z,4.10
2018-03-31T10:11:46.372Z,4.10
2018-03-31T10:14:15.686Z,4.50
2018-03-31T10:16:43.484Z,4.60
2018-03-31T10:19:11.305Z,4.60
2018-03-31T10:21:39.103Z,4.43
2018-03-31T10:24:06.872Z,4.60
2018-03-31T10:26:34.828Z,4.30
2018-03-31T10:29:02.660Z,3.30
2018-03-31T10:31:30.457Z,3.97
2018-03-31T10:33:59.018Z,3.80
2018-03-31T10:36:26.937Z,3.83
2018-03-31T10:38:55.811Z,3.70
2018-03-31T10:41:23.699Z,3.83
2018-03-31T10:43:51.489Z,4.00
2018-03-31T10:46:19.268Z,4.00
2018-03-31T10:48:47.626Z,3.97
2018-03-31T10:51:15.426Z,4.00
2018-03-31T10:53:43.358Z,4.50
2018-03-31T10:56:11.262Z,4.23
2018-03-31T10:58:39.423Z,4.20
2018-03-31T11:01:08.176Z,3.83
2018-03-31T11:03:35.981Z,4.33
2018-03-31T11:06:04.540Z,3.83
2018-03-31T11:08:32.312Z,3.40
2018-03-31T11:11:00.100Z,3.40
2018-03-31T11:13:29.383Z,3.20
2018-03-31T11:15:57.205Z,4.07
2018-03-31T11:18:25.938Z,3.93
2018-03-31T11:20:53.689Z,3.63
2018-03-31T11:23:21.485Z,4.20
2018-03-31T11:25:49.467Z,3.97
2018-03-31T11:28:17.251Z,3.97
2018-03-31T11:30:45.082Z,3.87
2018-03-31T11:33:12.857Z,3.30
2018-03-31T11:35:40.723Z,3.17
2018-03-31T11:38:08.530Z,3.80
2018-03-31T11:40:37.087Z,3.87
2018-03-31T11:43:04.884Z,3.93
2018-03-31T11:45:32.666Z,3.97
2018-03-31T11:48:01.224Z,3.77
2018-03-31T11:50:29.021Z,4.23
2018-03-31T11:52:56.776Z,3.30
2018-03-31T11:55:24.564Z,3.30
2018-03-31T11:57:52.332Z,3.80
2018-03-31T12:00:20.929Z,4.20
2018-03-31T12:02:48.713Z,3.70
2018-03-31T12:05:16.497Z,3.77
2018-03-31T12:07:45.797Z,3.50
2018-03-31T12:10:13.378Z,3.20
2018-03-31T12:12:43.189Z,3.67
2018-03-31T12:15:11.025Z,3.23
2018-03-31T12:17:38.819Z,3.03
2018-03-31T12:20:07.499Z,3.83
2018-03-31T12:22:36.042Z,3.27
2018-03-31T12:25:04.099Z,3.30
2018-03-31T12:27:31.873Z,3.73
2018-03-31T12:29:59.696Z,4.20
2018-03-31T12:32:27.491Z,4.13
2018-03-31T12:34:56.027Z,3.73
2018-03-31T12:37:23.853Z,3.90
2018-03-31T12:39:51.632Z,3.70
2018-03-31T12:42:19.424Z,3.63
2018-03-31T12:44:48.019Z,3.63
2018-03-31T12:47:15.960Z,4.73
2018-03-31T12:49:43.756Z,3.70
2018-03-31T12:52:11.597Z,4.30
2018-03-31T12:54:40.308Z,3.87
2018-03-31T12:57:08.106Z,4.27
2018-03-31T12:59:35.866Z,4.37
2018-03-31T13:02:03.700Z,3.47
2018-03-31T13:04:31.517Z,3.67
2018-03-31T13:06:59.468Z,4.07
2018-03-31T13:09:27.269Z,3.70
2018-03-31T13:11:55.126Z,3.40
2018-03-31T13:14:22.661Z,3.60
2018-03-31T13:16:51.212Z,3.40
2018-03-31T13:19:19.003Z,3.60
2018-03-31T13:21:46.773Z,3.67
2018-03-31T13:24:14.560Z,3.20
2018-03-31T13:26:42.533Z,3.60
2018-03-31T13:29:11.133Z,3.37
2018-03-31T13:31:38.932Z,3.47
2018-03-31T13:34:06.709Z,3.33
2018-03-31T13:36:35.280Z,3.60
2018-03-31T13:39:03.227Z,3.33
2018-03-31T13:41:31.754Z,3.30
2018-03-31T13:43:59.527Z,3.67
2018-03-31T13:46:27.319Z,3.70
2018-03-31T13:48:55.092Z,3.17
2018-03-31T13:51:22.920Z,3.23
2018-03-31T13:53:50.697Z,3.07
2018-03-31T13:56:18.479Z,2.80
2018-03-31T13:58:46.267Z,2.90
2018-03-31T14:01:14.041Z,3.17
2018-03-31T14:03:41.842Z,2.93
2018-03-31T14:06:09.611Z,3.20
2018-03-31T14:08:37.387Z,3.13
2018-03-31T14:11:05.213Z,3.20
2018-03-31T14:13:33.756Z,3.23
2018-03-31T14:16:01.534Z,3.30
2018-03-31T14:18:29.341Z,3.10
2018-03-31T14:20:57.117Z,3.33
2018-03-31T14:23:24.899Z,3.90
2018-03-31T14:25:52.676Z,3.20
2018-03-31T14:28:20.498Z,3.10
2018-03-31T14:30:48.269Z,3.30
2018-03-31T14:33:16.059Z,3.80
2018-03-31T14:35:43.928Z,3.77
2018-03-31T14:38:11.468Z,3.50
2018-03-31T14:40:40.040Z,3.77
2018-03-31T14:43:07.814Z,3.33
2018-03-31T14:45:37.105Z,3.37
2018-03-31T14:48:04.944Z,3.10
2018-03-31T14:50:33.477Z,3.33
2018-03-31T14:53:01.253Z,3.17
2018-03-31T14:55:29.115Z,3.03
2018-03-31T14:57:57.139Z,3.67
2018-03-31T15:00:25.937Z,3.07
2018-03-31T15:02:53.722Z,3.43
2018-03-31T15:05:22.116Z,3.13
2018-03-31T15:07:50.483Z,3.30
2018-03-31T15:10:18.053Z,3.00
2018-03-31T15:12:45.960Z,3.20
2018-03-31T15:15:14.126Z,3.30
2018-03-31T15:17:41.921Z,3.40
2018-03-31T15:20:11.142Z,3.50
2018-03-31T15:22:39.716Z,3.60
2018-03-31T15:25:07.656Z,3.57
2018-03-31T15:27:37.235Z,3.40
2018-03-31T15:30:04.996Z,3.70
2018-03-31T15:32:32.857Z,3.10
2018-03-31T15:35:00.715Z,3.50
2018-03-31T15:37:28.493Z,3.63
2018-03-31T15:39:56.293Z,4.10
2018-03-31T15:42:24.269Z,4.10
2018-03-31T15:44:52.088Z,3.40
2018-03-31T15:47:20.628Z,3.60
2018-03-31T15:49:48.644Z,3.47
2018-03-31T15:52:16.462Z,3.47
2018-03-31T15:54:44.252Z,3.20
2018-03-31T15:57:11.781Z,3.47
2018-03-31T15:59:40.316Z,3.67
2018-03-31T16:02:08.141Z,3.40
2018-03-31T16:04:35.907Z,3.50
2018-03-31T16:07:05.239Z,3.70
2018-03-31T16:09:33.005Z,3.03
2018-03-31T16:12:01.016Z,3.10
2018-03-31T16:14:29.235Z,4.00
2018-03-31T16:16:57.013Z,3.63
2018-03-31T16:19:24.808Z,3.40
2018-03-31T16:21:52.589Z,3.43
2018-03-31T16:24:20.356Z,3.30
2018-03-31T16:26:47.906Z,3.90
2018-03-31T16:29:15.662Z,3.47
2018-03-31T16:31:44.216Z,3.67
2018-03-31T16:34:12.001Z,3.20
2018-03-31T16:36:39.778Z,3.63
2018-03-31T16:39:07.578Z,3.30
2018-03-31T16:41:36.112Z,3.60
2018-03-31T16:44:03.992Z,3.70
2018-03-31T16:46:31.731Z,3.33
2018-03-31T16:48:59.528Z,3.57
2018-03-31T16:51:27.298Z,3.70
2018-03-31T16:53:55.081Z,3.50
2018-03-31T16:56:22.967Z,3.50
2018-03-31T16:58:50.716Z,3.83
2018-03-31T17:01:19.339Z,3.57
2018-03-31T17:03:47.093Z,3.40
2018-03-31T17:06:15.132Z,4.17
2018-03-31T17:08:43.717Z,3.80
2018-03-31T17:11:11.502Z,3.63
2018-03-31T17:13:39.278Z,3.53
2018-03-31T17:16:07.039Z,2.87
2018-03-31T17:18:35.600Z,3.10
2018-03-31T17:21:04.168Z,3.10
2018-03-31T17:23:32.709Z,3.37
2018-03-31T17:26:00.710Z,3.53
2018-03-31T17:28:28.481Z,3.20
2018-03-31T17:30:56.292Z,3.10
2018-03-31T17:33:24.069Z,3.53
2018-03-31T17:35:51.920Z,3.00
2018-03-31T17:38:19.708Z,3.40
2018-03-31T17:40:47.689Z,3.63
2018-03-31T17:43:16.281Z,2.97
2018-03-31T17:45:44.184Z,3.00
2018-03-31T17:48:12.752Z,3.50
2018-03-31T17:50:40.537Z,3.57
2018-03-31T17:53:08.334Z,3.33
2018-03-31T17:55:36.888Z,3.47
2018-03-31T17:58:04.755Z,3.33
2018-03-31T18:00:33.265Z,3.83
2018-03-31T18:03:01.060Z,4.50
2018-03-31T18:05:28.821Z,2.70
2018-03-31T18:07:56.609Z,2.20
2018-03-31T18:10:24.397Z,1.90
2018-03-31T18:12:52.185Z,1.80
2018-03-31T18:15:20.937Z,1.73
2018-03-31T18:17:48.724Z,1.70
2018-03-31T18:20:16.472Z,1.50
2018-03-31T18:22:45.052Z,1.90
2018-03-31T18:25:12.944Z,1.70
2018-03-31T18:27:40.757Z,2.17
2018-03-31T18:30:08.563Z,2.43
2018-03-31T18:32:36.381Z,1.90
2018-03-31T18:35:04.167Z,2.40
2018-03-31T18:37:31.925Z,1.90
2018-03-31T18:39:59.693Z,1.70
2018-03-31T18:42:28.271Z,1.73
2018-03-31T18:44:56.049Z,2.10
2018-03-31T18:47:23.818Z,1.80
2018-03-31T18:49:52.357Z,1.90
2018-03-31T18:52:20.874Z,1.90
2018-03-31T18:54:48.825Z,2.00
2018-03-31T18:57:16.592Z,2.00
2018-03-31T18:59:44.408Z,1.97
2018-03-31T19:02:12.237Z,2.27
2018-03-31T19:04:40.050Z,2.23
2018-03-31T19:07:08.516Z,2.53
2018-03-31T19:09:36.518Z,2.33
2018-03-31T19:12:04.276Z,2.30
2018-03-31T19:14:32.619Z,2.83
2018-03-31T19:17:06.767Z,2.90
2018-03-31T19:19:35.348Z,3.13
2018-03-31T19:22:03.289Z,2.90
2018-03-31T19:24:30.997Z,2.67
2018-03-31T19:27:00.067Z,2.50
2018-03-31T19:29:27.908Z,3.10
2018-03-31T19:31:55.657Z,3.87
2018-03-31T19:34:23.522Z,3.60
2018-03-31T19:36:52.209Z,3.47
2018-03-31T19:39:25.541Z,3.13
2018-03-31T19:41:53.425Z,3.20
2018-03-31T19:44:21.426Z,3.10
2018-03-31T19:46:49.185Z,2.83
2018-03-31T19:49:16.960Z,2.60
2018-03-31T19:51:46.261Z,3.07
2018-03-31T19:54:14.058Z,3.27
2018-03-31T19:56:41.844Z,3.10
2018-03-31T19:59:10.382Z,3.80
2018-03-31T20:01:38.161Z,3.27
2018-03-31T20:04:06.109Z,2.50
2018-03-31T20:06:34.671Z,2.80
2018-03-31T20:09:02.433Z,2.30
2018-03-31T20:11:30.223Z,2.30
2018-03-31T20:13:58.005Z,2.50
2018-03-31T20:16:27.280Z,2.50
2018-03-31T20:18:55.049Z,2.70
2018-03-31T20:21:22.828Z,2.70
2018-03-31T20:23:50.710Z,3.17
2018-03-31T20:26:19.227Z,3.27
2018-03-31T20:28:47.192Z,3.47
2018-03-31T20:31:14.969Z,4.27
2018-03-31T20:33:42.773Z,4.53
2018-03-31T20:36:10.546Z,5.50
2018-03-31T20:38:38.352Z,5.00
2018-03-31T20:41:06.877Z,5.30
2018-03-31T20:43:34.654Z,5.47
2018-03-31T20:46:02.426Z,6.80
2018-03-31T20:48:30.216Z,5.27
2018-03-31T20:50:57.763Z,5.00
2018-03-31T20:53:26.318Z,6.00
2018-03-31T20:55:54.092Z,4.93
2018-03-31T20:58:21.938Z,4.87
2018-03-31T21:00:49.700Z,5.70
2018-03-31T21:03:17.464Z,5.07
2018-03-31T21:05:46.017Z,5.30
2018-03-31T21:08:13.816Z,5.50
2018-03-31T21:10:41.711Z,5.63
2018-03-31T21:13:10.244Z,4.97
2018-03-31T21:15:38.035Z,5.63
2018-03-31T21:18:05.794Z,5.33
2018-03-31T21:20:33.586Z,5.47
2018-03-31T21:23:01.336Z,4.73
2018-03-31T21:25:29.130Z,4.20
2018-03-31T21:27:56.905Z,4.67
2018-03-31T21:30:24.673Z,4.47
2018-03-31T21:32:52.470Z,4.57
2018-03-31T21:35:20.240Z,4.43
2018-03-31T21:37:48.029Z,3.53
2018-03-31T21:40:15.840Z,3.80
2018-03-31T21:42:45.304Z,3.47
2018-03-31T21:45:13.125Z,3.83
2018-03-31T21:47:40.914Z,3.60
2018-03-31T21:50:08.675Z,3.70
2018-03-31T21:52:36.512Z,3.40
2018-03-31T21:55:04.280Z,3.47
2018-03-31T21:57:32.044Z,3.47
2018-03-31T21:59:59.888Z,4.13
2018-03-31T22:02:27.648Z,4.80
2018-03-31T22:04:55.427Z,5.17
2018-03-31T22:07:23.260Z,5.63
2018-03-31T22:09:51.866Z,5.33
2018-03-31T22:12:19.603Z,6.03
2018-03-31T22:14:53.573Z,5.43
2018-03-31T22:17:21.420Z,5.13
2018-03-31T22:19:49.185Z,5.50
2018-03-31T22:22:17.719Z,5.10
2018-03-31T22:24:45.503Z,5.47
2018-03-31T22:27:13.293Z,5.17
2018-03-31T22:29:41.099Z,5.37
2018-03-31T22:32:09.652Z,5.40
2018-03-31T22:34:37.498Z,5.33
2018-03-31T22:37:05.310Z,5.03
2018-03-31T22:39:33.050Z,5.47
2018-03-31T22:42:00.832Z,5.37
2018-03-31T22:44:28.613Z,4.97
2018-03-31T22:46:56.392Z,5.23
2018-03-31T22:49:24.228Z,5.10
2018-03-31T22:51:52.020Z,4.80
2018-03-31T22:54:20.569Z,5.07
2018-03-31T22:56:48.346Z,5.50
2018-03-31T22:59:16.332Z,5.60
2018-03-31T23:01:44.100Z,5.43
2018-03-31T23:04:12.432Z,5.77
2018-03-31T23:06:41.739Z,6.73
2018-03-31T23:09:10.041Z,8.23
2018-03-31T23:11:40.622Z,7.23
2018-03-31T23:14:09.160Z,6.63
2018-03-31T23:16:37.265Z,7.37
2018-03-31T23:19:05.380Z,7.67
2018-03-31T23:21:33.701Z,7.53
2018-03-31T23:24:02.435Z,7.93
2018-03-31T23:26:30.733Z,7.33
2018-03-31T23:28:59.236Z,7.83
2018-03-31T23:31:27.537Z,7.77
2018-03-31T23:33:55.835Z,7.83
2018-03-31T23:36:24.120Z,7.80
2018-03-31T23:38:51.908Z,8.20
2018-03-31T23:41:19.876Z,7.67
2018-03-31T23:43:47.652Z,8.30
2018-03-31T23:46:15.423Z,7.93
2018-03-31T23:48:43.307Z,8.20
2018-03-31T23:51:11.072Z,7.97
2018-03-31T23:53:38.851Z,8.47
2018-03-31T23:56:06.615Z,7.33
2018-03-31T23:58:34.392Z,8.23
